createdAt,value
2022-10-04T00:00:29.022Z,13.00
2022-10-04T00:03:31.399Z,13.00
2022-10-04T00:06:22.104Z,13.00
2022-10-04T00:09:15.692Z,13.00
2022-10-04T00:12:04.621Z,13.00
2022-10-04T00:14:54.232Z,13.00
2022-10-04T00:17:41.294Z,13.00
2022-10-04T00:21:02.954Z,13.00
2022-10-04T00:23:51.530Z,13.00
2022-10-04T00:27:05.355Z,13.00
2022-10-04T00:30:16.665Z,13.00
2022-10-04T00:33:05.235Z,13.00
2022-10-04T00:35:52.835Z,13.00
2022-10-04T00:38:39.664Z,13.00
2022-10-04T00:41:29.719Z,13.00
2022-10-04T00:44:20.666Z,13.00
2022-10-04T00:47:22.334Z,13.00
2022-10-04T00:50:17.021Z,12.90
2022-10-04T00:53:13.680Z,13.00
2022-10-04T00:56:04.068Z,13.00
2022-10-04T00:59:10.817Z,13.00
2022-10-04T01:02:02.337Z,12.90
2022-10-04T01:04:53.508Z,12.90
2022-10-04T01:07:44.787Z,12.90
2022-10-04T01:10:34.727Z,12.90
2022-10-04T01:13:24.325Z,12.90
2022-10-04T01:16:18.390Z,12.80
2022-10-04T01:19:27.394Z,12.80
2022-10-04T01:22:17.184Z,12.80
2022-10-04T01:25:05.934Z,12.80
2022-10-04T01:27:53.805Z,12.80
2022-10-04T01:30:40.850Z,12.80
2022-10-04T01:33:28.133Z,12.80
2022-10-04T01:36:15.622Z,12.80
2022-10-04T01:39:02.747Z,12.80
2022-10-04T01:41:55.495Z,12.70
2022-10-04T01:44:49.752Z,12.70
2022-10-04T01:47:42.001Z,12.70
2022-10-04T01:50:34.198Z,12.70
2022-10-04T01:53:24.786Z,12.60
2022-10-04T01:56:15.862Z,12.60
2022-10-04T01:59:08.360Z,12.60
2022-10-04T02:02:00.443Z,12.50
2022-10-04T02:04:53.888Z,12.50
2022-10-04T02:07:42.877Z,12.50
2022-10-04T02:10:31.219Z,12.40
2022-10-04T02:13:19.953Z,12.40
2022-10-04T02:16:12.495Z,12.30
2022-10-04T02:19:00.334Z,12.30
2022-10-04T02:21:49.052Z,12.20
2022-10-04T02:24:39.117Z,12.20
2022-10-04T02:27:31.282Z,12.20
2022-10-04T02:30:18.296Z,12.20
2022-10-04T02:33:06.507Z,12.20
2022-10-04T02:35:53.947Z,12.20
2022-10-04T02:38:45.076Z,12.20
2022-10-04T02:41:35.683Z,12.20
2022-10-04T02:44:26.656Z,12.30
2022-10-04T02:47:17.854Z,12.30
2022-10-04T02:50:17.749Z,12.30
2022-10-04T02:53:13.020Z,12.30
2022-10-04T02:56:02.495Z,12.30
2022-10-04T02:58:50.442Z,12.30
2022-10-04T03:01:44.766Z,12.30
2022-10-04T03:04:38.848Z,12.20
2022-10-04T03:07:27.997Z,12.20
2022-10-04T03:10:15.540Z,12.10
2022-10-04T03:13:02.742Z,12.00
2022-10-04T03:15:50.596Z,12.00
2022-10-04T03:18:38.454Z,12.00
2022-10-04T03:21:27.027Z,11.90
2022-10-04T03:24:19.777Z,11.80
2022-10-04T03:27:09.815Z,11.80
2022-10-04T03:29:59.520Z,11.80
2022-10-04T03:32:47.350Z,11.80
2022-10-04T03:35:38.362Z,11.80
2022-10-04T03:38:26.507Z,11.80
2022-10-04T03:41:16.524Z,11.80
2022-10-04T03:44:05.152Z,11.70
2022-10-04T03:46:52.522Z,11.60
2022-10-04T03:49:41.927Z,11.60
2022-10-04T03:52:33.949Z,11.60
2022-10-04T03:55:22.201Z,11.50
2022-10-04T03:58:12.742Z,11.50
2022-10-04T04:01:15.388Z,11.50
2022-10-04T04:04:07.952Z,11.40
2022-10-04T04:07:03.224Z,11.40
2022-10-04T04:09:54.666Z,11.40
2022-10-04T04:12:47.829Z,11.40
2022-10-04T04:15:36.555Z,11.40
2022-10-04T04:18:25.711Z,11.50
2022-10-04T04:21:18.606Z,11.60
2022-10-04T04:24:14.036Z,11.60
2022-10-04T04:27:05.173Z,11.60
2022-10-04T04:29:54.206Z,11.60
2022-10-04T04:32:46.835Z,11.60
2022-10-04T04:35:36.289Z,11.70
2022-10-04T04:38:25.402Z,11.70
2022-10-04T04:41:12.637Z,11.70
2022-10-04T04:43:59.974Z,11.80
2022-10-04T04:46:47.958Z,11.80
2022-10-04T04:49:39.789Z,11.70
2022-10-04T04:52:30.396Z,11.70
2022-10-04T04:55:20.403Z,11.60
2022-10-04T04:58:09.196Z,11.70
2022-10-04T05:01:00.130Z,11.60
2022-10-04T05:04:02.107Z,11.60
2022-10-04T05:07:01.393Z,11.60
2022-10-04T05:09:48.305Z,11.60
2022-10-04T05:12:35.353Z,11.70
2022-10-04T05:15:23.739Z,11.60
2022-10-04T05:18:22.181Z,11.70
2022-10-04T05:21:14.672Z,11.70
2022-10-04T05:24:12.065Z,11.70
2022-10-04T05:27:02.386Z,11.70
2022-10-04T05:30:00.238Z,11.70
2022-10-04T05:32:55.487Z,11.70
2022-10-04T05:35:50.244Z,11.60
2022-10-04T05:38:44.535Z,11.80
2022-10-04T05:41:41.999Z,11.90
2022-10-04T05:44:30.687Z,11.90
2022-10-04T05:47:22.797Z,12.00
2022-10-04T05:50:17.698Z,12.10
2022-10-04T05:53:20.594Z,12.10
2022-10-04T05:56:22.291Z,12.20
2022-10-04T05:59:23.190Z,12.30
2022-10-04T06:02:21.845Z,12.40
2022-10-04T06:05:15.704Z,12.40
2022-10-04T06:08:08.601Z,12.40
2022-10-04T06:11:11.478Z,12.40
2022-10-04T06:14:23.011Z,12.50
2022-10-04T06:17:39.305Z,12.50
2022-10-04T06:21:03.500Z,12.50
2022-10-04T06:24:04.891Z,12.60
2022-10-04T06:26:57.474Z,12.60
2022-10-04T06:29:49.401Z,12.60
2022-10-04T06:33:08.163Z,12.70
2022-10-04T06:36:13.130Z,12.70
2022-10-04T06:39:20.193Z,12.70
2022-10-04T06:42:33.878Z,12.80
2022-10-04T06:45:38.924Z,12.70
2022-10-04T06:48:51.538Z,12.70
2022-10-04T06:51:56.649Z,12.70
2022-10-04T06:55:04.087Z,12.60
2022-10-04T06:58:17.357Z,12.60
2022-10-04T07:01:13.448Z,12.60
2022-10-04T07:04:14.799Z,12.60
2022-10-04T07:07:26.889Z,12.60
2022-10-04T07:10:32.175Z,12.60
2022-10-04T07:13:33.183Z,12.70
2022-10-04T07:16:33.202Z,12.70
2022-10-04T07:19:37.825Z,12.80
2022-10-04T07:22:32.049Z,12.80
2022-10-04T07:25:24.073Z,12.80
2022-10-04T07:28:34.229Z,12.90
2022-10-04T07:31:26.360Z,13.00
2022-10-04T07:34:20.015Z,13.10
2022-10-04T07:37:12.774Z,13.20
2022-10-04T07:40:04.398Z,13.30
2022-10-04T07:42:56.349Z,13.20
2022-10-04T07:45:43.586Z,13.20
2022-10-04T07:48:30.651Z,13.10
2022-10-04T07:51:26.811Z,13.20
2022-10-04T07:54:22.840Z,13.20
2022-10-04T07:57:17.363Z,13.20
2022-10-04T08:00:10.459Z,13.20
2022-10-04T08:03:20.041Z,13.20
2022-10-04T08:06:12.044Z,13.30
2022-10-04T08:09:16.687Z,13.30
2022-10-04T08:12:16.260Z,13.40
2022-10-04T08:15:30.849Z,13.40
2022-10-04T08:18:39.035Z,13.40
2022-10-04T08:21:36.738Z,13.30
2022-10-04T08:24:31.071Z,13.40
2022-10-04T08:28:11.928Z,13.70
2022-10-04T08:31:17.907Z,13.80
2022-10-04T08:34:24.369Z,13.80
2022-10-04T08:37:26.063Z,14.00
2022-10-04T08:40:45.526Z,13.90
2022-10-04T08:44:23.177Z,14.00
2022-10-04T08:47:54.483Z,14.10
2022-10-04T08:51:17.715Z,14.10
2022-10-04T08:54:59.286Z,14.10
2022-10-04T08:58:02.510Z,14.30
2022-10-04T09:01:18.274Z,14.60
2022-10-04T09:04:45.725Z,14.50
2022-10-04T09:08:08.899Z,14.90
2022-10-04T09:11:10.409Z,15.20
2022-10-04T09:14:31.720Z,15.10
2022-10-04T09:17:24.061Z,15.30
2022-10-04T09:20:38.438Z,16.30
2022-10-04T09:24:09.129Z,15.80
2022-10-04T09:27:04.367Z,15.40
2022-10-04T09:30:08.095Z,15.80
2022-10-04T09:33:25.902Z,15.90
2022-10-04T09:36:43.370Z,15.60
2022-10-04T09:40:03.835Z,15.20
2022-10-04T09:43:25.962Z,15.30
2022-10-04T09:46:31.767Z,15.20
2022-10-04T09:49:45.728Z,15.30
2022-10-04T09:52:46.906Z,15.40
2022-10-04T09:56:02.043Z,15.60
2022-10-04T09:59:22.887Z,15.50
2022-10-04T10:02:42.902Z,15.90
2022-10-04T10:05:50.678Z,16.00
2022-10-04T10:08:50.778Z,16.20
2022-10-04T10:12:06.765Z,16.40
2022-10-04T10:15:11.621Z,16.30
2022-10-04T10:18:09.995Z,16.30
2022-10-04T10:21:17.329Z,16.50
2022-10-04T10:24:17.162Z,16.30
2022-10-04T10:27:17.307Z,16.40
2022-10-04T10:30:16.645Z,16.50
2022-10-04T10:33:34.011Z,16.70
2022-10-04T10:37:00.471Z,16.70
2022-10-04T10:40:09.441Z,16.60
2022-10-04T10:43:25.983Z,16.60
2022-10-04T10:46:29.041Z,16.60
2022-10-04T10:49:44.271Z,16.60
2022-10-04T10:53:10.798Z,16.30
2022-10-04T10:56:35.096Z,16.50
2022-10-04T10:59:55.420Z,16.70
2022-10-04T11:03:23.130Z,16.90
2022-10-04T11:06:31.067Z,16.90
2022-10-04T11:09:35.037Z,16.80
2022-10-04T11:12:51.594Z,16.50
2022-10-04T11:15:56.510Z,16.70
2022-10-04T11:19:29.790Z,16.60
2022-10-04T11:22:50.927Z,16.70
2022-10-04T11:26:26.000Z,16.90
2022-10-04T11:29:28.590Z,16.90
2022-10-04T11:32:59.530Z,16.90
2022-10-04T11:36:34.846Z,16.70
2022-10-04T11:39:46.185Z,16.30
2022-10-04T11:42:54.591Z,16.60
2022-10-04T11:46:09.995Z,16.90
2022-10-04T11:49:11.690Z,16.90
2022-10-04T11:52:17.583Z,17.20
2022-10-04T11:55:57.301Z,17.20
2022-10-04T11:58:56.223Z,17.00
2022-10-04T12:02:32.250Z,17.00
2022-10-04T12:05:49.475Z,17.10
2022-10-04T12:08:59.468Z,16.80
2022-10-04T12:12:40.161Z,16.80
2022-10-04T12:15:45.271Z,16.80
2022-10-04T12:19:17.824Z,16.70
2022-10-04T12:22:30.220Z,16.90
2022-10-04T12:25:48.714Z,17.00
2022-10-04T12:29:04.438Z,17.30
2022-10-04T12:31:58.661Z,17.40
2022-10-04T12:34:54.101Z,17.50
2022-10-04T12:37:54.770Z,17.40
2022-10-04T12:40:49.774Z,17.40
2022-10-04T12:43:50.249Z,17.50
2022-10-04T12:46:51.782Z,17.30
2022-10-04T12:49:47.823Z,17.40
2022-10-04T12:52:46.823Z,17.50
2022-10-04T12:55:55.203Z,17.60
2022-10-04T12:58:53.785Z,17.50
2022-10-04T13:01:52.211Z,17.50
2022-10-04T13:04:43.218Z,17.50
2022-10-04T13:07:51.258Z,17.50
2022-10-04T13:10:54.877Z,17.40
2022-10-04T13:14:02.064Z,17.60
2022-10-04T13:20:23.797Z,17.60
2022-10-04T13:23:24.892Z,17.60
2022-10-04T13:26:37.907Z,17.30
2022-10-04T13:29:29.997Z,17.20
2022-10-04T13:32:24.094Z,17.20
2022-10-04T13:35:20.874Z,17.50
2022-10-04T13:38:38.002Z,17.60
2022-10-04T13:41:39.724Z,17.80
2022-10-04T13:44:44.966Z,17.70
2022-10-04T13:48:09.274Z,17.80
2022-10-04T13:51:10.338Z,17.70
2022-10-04T13:54:29.930Z,17.70
2022-10-04T13:57:25.451Z,17.90
2022-10-04T14:00:15.458Z,18.00
2022-10-04T14:03:13.489Z,18.00
2022-10-04T14:06:28.192Z,17.90
2022-10-04T14:09:41.341Z,17.90
2022-10-04T14:13:11.173Z,17.90
2022-10-04T14:16:24.397Z,17.70
2022-10-04T14:19:42.670Z,17.80
2022-10-04T14:23:09.116Z,17.70
2022-10-04T14:26:28.910Z,17.70
2022-10-04T14:29:50.306Z,17.90
2022-10-04T14:33:14.078Z,17.80
2022-10-04T14:36:27.843Z,17.70
2022-10-04T14:39:31.658Z,17.60
2022-10-04T14:43:03.731Z,17.40
2022-10-04T14:46:11.563Z,17.40
2022-10-04T14:49:11.112Z,17.50
2022-10-04T14:52:14.273Z,17.50
2022-10-04T14:55:17.236Z,17.50
2022-10-04T14:58:18.798Z,17.50
2022-10-04T15:01:23.091Z,17.50
2022-10-04T15:04:30.179Z,17.30
2022-10-04T15:07:21.060Z,17.30
2022-10-04T15:10:15.411Z,17.40
2022-10-04T15:13:11.020Z,17.40
2022-10-04T15:16:13.865Z,17.40
2022-10-04T15:19:09.264Z,17.40
2022-10-04T15:22:10.930Z,17.30
2022-10-04T15:24:59.511Z,17.30
2022-10-04T15:27:54.718Z,17.30
2022-10-04T15:30:54.946Z,17.30
2022-10-04T15:33:47.543Z,17.30
2022-10-04T15:37:02.666Z,17.20
2022-10-04T15:40:09.838Z,17.00
2022-10-04T15:43:14.220Z,16.90
2022-10-04T15:46:34.516Z,16.90
2022-10-04T15:49:31.108Z,16.80
2022-10-04T15:53:05.322Z,16.80
2022-10-04T15:56:12.638Z,16.80
2022-10-04T15:59:31.638Z,16.70
2022-10-04T16:02:48.621Z,16.70
2022-10-04T16:05:39.423Z,16.60
2022-10-04T16:08:42.110Z,16.50
2022-10-04T16:11:46.087Z,16.40
2022-10-04T16:15:14.339Z,16.40
2022-10-04T16:18:26.359Z,16.30
2022-10-04T16:21:26.593Z,16.30
2022-10-04T16:24:40.718Z,16.20
2022-10-04T16:28:05.585Z,16.10
2022-10-04T16:31:20.189Z,16.10
2022-10-04T16:34:31.695Z,16.00
2022-10-04T16:37:32.231Z,15.90
2022-10-04T16:40:34.402Z,15.80
2022-10-04T16:43:28.626Z,15.80
2022-10-04T16:46:25.104Z,15.60
2022-10-04T16:49:24.946Z,15.50
2022-10-04T16:52:48.379Z,15.40
2022-10-04T16:55:51.694Z,15.30
2022-10-04T16:58:53.430Z,15.10
2022-10-04T17:02:07.565Z,15.00
2022-10-04T17:05:08.219Z,14.90
2022-10-04T17:08:46.606Z,14.90
2022-10-04T17:11:43.895Z,14.90
2022-10-04T17:15:06.818Z,14.80
2022-10-04T17:18:01.667Z,14.70
2022-10-04T17:20:57.442Z,14.60
2022-10-04T17:23:57.942Z,14.60
2022-10-04T17:26:58.997Z,14.40
2022-10-04T17:30:02.006Z,14.30
2022-10-04T17:33:11.718Z,14.20
2022-10-04T17:36:09.634Z,14.10
2022-10-04T17:39:06.547Z,14.00
2022-10-04T17:42:10.254Z,13.90
2022-10-04T17:45:15.559Z,13.90
2022-10-04T17:48:23.847Z,13.70
2022-10-04T17:51:33.366Z,13.50
2022-10-04T17:54:42.915Z,13.50
2022-10-04T17:57:40.677Z,13.50
2022-10-04T18:00:47.314Z,13.60
2022-10-04T18:03:39.829Z,13.40
2022-10-04T18:06:33.447Z,13.10
2022-10-04T18:09:28.513Z,13.20
2022-10-04T18:12:27.158Z,13.20
2022-10-04T18:15:21.908Z,13.10
2022-10-04T18:18:18.777Z,13.00
2022-10-04T18:21:18.753Z,13.00
2022-10-04T18:24:20.480Z,13.00
2022-10-04T18:27:19.387Z,12.90
2022-10-04T18:30:15.541Z,12.80
2022-10-04T18:33:05.236Z,12.80
2022-10-04T18:36:00.810Z,12.80
2022-10-04T18:39:03.406Z,12.70
2022-10-04T18:42:04.141Z,12.70
2022-10-04T18:44:59.270Z,12.70
2022-10-04T18:47:46.495Z,12.60
2022-10-04T18:50:37.858Z,12.50
2022-10-04T18:53:43.600Z,12.50
2022-10-04T18:56:34.315Z,12.40
2022-10-04T18:59:50.586Z,12.40
2022-10-04T19:02:44.469Z,12.40
2022-10-04T19:05:40.515Z,12.30
2022-10-04T19:08:39.730Z,12.30
2022-10-04T19:11:33.786Z,12.30
2022-10-04T19:14:30.718Z,12.30
2022-10-04T19:17:26.546Z,12.20
2022-10-04T19:20:23.158Z,12.30
2022-10-04T19:23:25.749Z,12.30
2022-10-04T19:26:32.447Z,12.20
2022-10-04T19:29:32.650Z,12.20
2022-10-04T19:32:30.112Z,12.20
2022-10-04T19:35:26.674Z,12.30
2022-10-04T19:38:29.388Z,12.30
2022-10-04T19:41:27.006Z,12.20
2022-10-04T19:44:23.720Z,12.20
2022-10-04T19:47:23.089Z,12.10
2022-10-04T19:50:21.134Z,12.10
2022-10-04T19:53:14.938Z,12.00
2022-10-04T19:56:05.902Z,11.90
2022-10-04T19:59:01.430Z,11.90
2022-10-04T20:01:51.172Z,11.80
2022-10-04T20:04:43.552Z,11.70
2022-10-04T20:07:30.726Z,11.70
2022-10-04T20:10:30.940Z,11.60
2022-10-04T20:13:23.457Z,11.60
2022-10-04T20:16:11.807Z,11.60
2022-10-04T20:19:00.666Z,11.50
2022-10-04T20:21:47.643Z,11.40
2022-10-04T20:24:51.283Z,11.40
2022-10-04T20:28:02.034Z,11.50
2022-10-04T20:30:52.307Z,11.40
2022-10-04T20:33:49.325Z,11.30
2022-10-04T20:36:52.909Z,11.30
2022-10-04T20:40:00.993Z,11.30
2022-10-04T20:43:26.418Z,11.30
2022-10-04T20:46:23.588Z,11.30
2022-10-04T20:49:18.677Z,11.30
2022-10-04T20:52:05.706Z,11.20
2022-10-04T20:54:53.830Z,11.10
2022-10-04T20:57:40.918Z,11.20
2022-10-04T21:00:33.735Z,11.00
2022-10-04T21:03:21.635Z,11.20
2022-10-04T21:06:12.322Z,11.10
2022-10-04T21:08:59.427Z,11.20
2022-10-04T21:11:47.854Z,11.30
2022-10-04T21:14:36.264Z,11.20
2022-10-04T21:17:41.365Z,11.20
2022-10-04T21:20:48.109Z,11.20
2022-10-04T21:23:36.737Z,11.20
2022-10-04T21:26:24.975Z,11.20
2022-10-04T21:29:12.013Z,11.30
2022-10-04T21:32:00.039Z,11.20
2022-10-04T21:34:54.872Z,11.20
2022-10-04T21:37:42.051Z,11.30
2022-10-04T21:40:30.534Z,11.30
2022-10-04T21:43:17.801Z,11.30
2022-10-04T21:46:05.598Z,11.30
2022-10-04T21:48:52.626Z,11.30
2022-10-04T21:51:40.298Z,11.20
2022-10-04T21:54:27.541Z,11.30
2022-10-04T21:57:16.151Z,11.20
2022-10-04T22:00:03.306Z,11.30
2022-10-04T22:02:59.097Z,11.30
2022-10-04T22:05:46.386Z,11.30
2022-10-04T22:08:33.600Z,11.30
2022-10-04T22:11:20.885Z,11.30
2022-10-04T22:14:09.476Z,11.30
2022-10-04T22:16:56.405Z,11.30
2022-10-04T22:19:43.583Z,11.30
2022-10-04T22:22:34.261Z,11.20
2022-10-04T22:25:26.670Z,11.20
2022-10-04T22:28:22.127Z,11.30
2022-10-04T22:31:14.181Z,11.30
2022-10-04T22:34:01.203Z,11.30
2022-10-04T22:36:50.204Z,11.30
2022-10-04T22:39:37.148Z,11.30
2022-10-04T22:42:29.325Z,11.30
2022-10-04T22:45:21.504Z,11.30
2022-10-04T22:48:15.118Z,11.30
2022-10-04T22:51:02.029Z,11.30
2022-10-04T22:53:49.385Z,11.30
2022-10-04T22:56:36.358Z,11.30
2022-10-04T22:59:27.963Z,11.30
2022-10-04T23:02:16.731Z,11.30
2022-10-04T23:05:14.234Z,11.30
2022-10-04T23:08:00.958Z,11.30
2022-10-04T23:10:48.463Z,11.30
2022-10-04T23:13:35.609Z,11.30
2022-10-04T23:16:24.072Z,11.30
2022-10-04T23:19:13.385Z,11.20
2022-10-04T23:22:01.706Z,11.30
2022-10-04T23:24:48.793Z,11.20
2022-10-04T23:27:35.869Z,11.20
2022-10-04T23:30:23.617Z,11.20
2022-10-04T23:33:16.925Z,11.20
2022-10-04T23:36:03.957Z,11.20
2022-10-04T23:38:57.482Z,11.10
2022-10-04T23:41:45.534Z,11.00
2022-10-04T23:44:37.046Z,10.90
2022-10-04T23:47:26.275Z,10.90
2022-10-04T23:50:21.882Z,10.90
2022-10-04T23:53:18.040Z,10.90
2022-10-04T23:56:13.153Z,10.90
2022-10-04T23:59:00.433Z,10.90
